Tierra Amarilla, New Mexico
Current Conditions -  °F | °C
As of 7:55 PM on Sunday 21 Dec 2014 (Local Time) from KPSO Reporting Station
Light Snow Light Snow  
Wind Chill: 30°   Ceiling: 1000
Heat Index: 30°   Visibility: 4mi
Dew Point: 30°   Wind: 0mph
Humidity: 99%   Direction: NA
Pressure: 29.93"   Gusts: NA
Location:  36.7°N, 106.55°W
Report Text: KPSO 220255Z AUTO 00000KT 4SM -SN OVC010 M01/M01 A2993 RMK AO2 T10101011
Loading
Personal Weather Stations






























Interactive Weather Map New forecast layout! Learn more

10-Day Weather Forecast

Advertisements
Track Severe Weather on mobile